sensor_id;sensor_type;location;lat;lon;timestamp;P1;durP1;ratioP1;P2;durP2;ratioP2
30247;SDS011;17063;50.892;4.702;2023-07-31T00:00:23;17.70;;;4.17;;
30247;SDS011;17063;50.892;4.702;2023-07-31T00:02:57;11.60;;;4.10;;
30247;SDS011;17063;50.892;4.702;2023-07-31T00:05:24;11.10;;;3.07;;
30247;SDS011;17063;50.892;4.702;2023-07-31T00:07:52;9.60;;;3.70;;
30247;SDS011;17063;50.892;4.702;2023-07-31T00:10:23;14.30;;;4.43;;
30247;SDS011;17063;50.892;4.702;2023-07-31T00:12:50;16.20;;;4.17;;
30247;SDS011;17063;50.892;4.702;2023-07-31T00:15:17;12.07;;;3.77;;
30247;SDS011;17063;50.892;4.702;2023-07-31T00:17:43;10.60;;;3.83;;
30247;SDS011;17063;50.892;4.702;2023-07-31T00:20:10;10.90;;;4.00;;
30247;SDS011;17063;50.892;4.702;2023-07-31T00:22:37;9.63;;;3.73;;
30247;SDS011;17063;50.892;4.702;2023-07-31T00:25:04;9.37;;;3.80;;
30247;SDS011;17063;50.892;4.702;2023-07-31T00:27:32;11.60;;;3.80;;
30247;SDS011;17063;50.892;4.702;2023-07-31T00:29:59;17.37;;;4.10;;
30247;SDS011;17063;50.892;4.702;2023-07-31T00:32:26;13.40;;;3.83;;
30247;SDS011;17063;50.892;4.702;2023-07-31T00:34:53;10.73;;;4.13;;
30247;SDS011;17063;50.892;4.702;2023-07-31T00:37:20;14.20;;;3.93;;
30247;SDS011;17063;50.892;4.702;2023-07-31T00:39:47;12.57;;;4.20;;
30247;SDS011;17063;50.892;4.702;2023-07-31T00:42:14;12.37;;;3.60;;
30247;SDS011;17063;50.892;4.702;2023-07-31T00:44:41;15.57;;;4.10;;
30247;SDS011;17063;50.892;4.702;2023-07-31T00:47:07;16.00;;;4.23;;
30247;SDS011;17063;50.892;4.702;2023-07-31T00:49:34;10.70;;;3.67;;
30247;SDS011;17063;50.892;4.702;2023-07-31T00:52:01;11.37;;;4.07;;
30247;SDS011;17063;50.892;4.702;2023-07-31T00:54:29;11.83;;;4.17;;
30247;SDS011;17063;50.892;4.702;2023-07-31T00:56:55;11.07;;;3.83;;
30247;SDS011;17063;50.892;4.702;2023-07-31T00:59:23;13.60;;;4.00;;
30247;SDS011;17063;50.892;4.702;2023-07-31T01:01:50;11.70;;;4.43;;
30247;SDS011;17063;50.892;4.702;2023-07-31T01:04:17;13.07;;;3.90;;
30247;SDS011;17063;50.892;4.702;2023-07-31T01:06:46;11.37;;;4.17;;
30247;SDS011;17063;50.892;4.702;2023-07-31T01:09:30;9.60;;;3.47;;
30247;SDS011;17063;50.892;4.702;2023-07-31T01:12:03;9.40;;;3.77;;
30247;SDS011;17063;50.892;4.702;2023-07-31T01:14:31;11.53;;;3.50;;
30247;SDS011;17063;50.892;4.702;2023-07-31T01:16:57;11.17;;;4.00;;
30247;SDS011;17063;50.892;4.702;2023-07-31T01:19:25;14.00;;;4.50;;
30247;SDS011;17063;50.892;4.702;2023-07-31T01:27:34;14.23;;;4.00;;
30247;SDS011;17063;50.892;4.702;2023-07-31T01:30:08;14.07;;;4.87;;
30247;SDS011;17063;50.892;4.702;2023-07-31T01:32:42;10.13;;;3.47;;
30247;SDS011;17063;50.892;4.702;2023-07-31T01:35:12;13.40;;;3.87;;
30247;SDS011;17063;50.892;4.702;2023-07-31T01:37:39;9.83;;;3.70;;
30247;SDS011;17063;50.892;4.702;2023-07-31T01:40:06;12.13;;;3.87;;
30247;SDS011;17063;50.892;4.702;2023-07-31T01:42:34;10.80;;;3.63;;
30247;SDS011;17063;50.892;4.702;2023-07-31T01:45:01;9.10;;;3.27;;
30247;SDS011;17063;50.892;4.702;2023-07-31T01:47:28;9.00;;;3.77;;
30247;SDS011;17063;50.892;4.702;2023-07-31T01:49:55;11.23;;;4.00;;
30247;SDS011;17063;50.892;4.702;2023-07-31T01:52:22;12.83;;;4.00;;
30247;SDS011;17063;50.892;4.702;2023-07-31T01:54:49;11.67;;;3.90;;
30247;SDS011;17063;50.892;4.702;2023-07-31T01:57:16;13.83;;;3.83;;
30247;SDS011;17063;50.892;4.702;2023-07-31T01:59:43;10.63;;;3.57;;
30247;SDS011;17063;50.892;4.702;2023-07-31T02:02:10;9.50;;;4.07;;
30247;SDS011;17063;50.892;4.702;2023-07-31T02:04:37;12.20;;;3.97;;
30247;SDS011;17063;50.892;4.702;2023-07-31T02:07:07;12.27;;;3.80;;
30247;SDS011;17063;50.892;4.702;2023-07-31T02:09:34;15.27;;;4.77;;
30247;SDS011;17063;50.892;4.702;2023-07-31T02:12:01;10.93;;;3.70;;
30247;SDS011;17063;50.892;4.702;2023-07-31T02:14:28;10.80;;;4.13;;
30247;SDS011;17063;50.892;4.702;2023-07-31T02:16:55;10.60;;;3.93;;
30247;SDS011;17063;50.892;4.702;2023-07-31T02:19:21;13.40;;;4.57;;
30247;SDS011;17063;50.892;4.702;2023-07-31T02:21:48;9.53;;;3.83;;
30247;SDS011;17063;50.892;4.702;2023-07-31T02:24:15;9.53;;;3.93;;
30247;SDS011;17063;50.892;4.702;2023-07-31T02:26:42;13.03;;;4.07;;
30247;SDS011;17063;50.892;4.702;2023-07-31T02:29:09;13.90;;;4.27;;
30247;SDS011;17063;50.892;4.702;2023-07-31T02:31:36;11.03;;;4.33;;
30247;SDS011;17063;50.892;4.702;2023-07-31T02:34:04;14.77;;;3.73;;
30247;SDS011;17063;50.892;4.702;2023-07-31T02:36:31;9.47;;;3.90;;
30247;SDS011;17063;50.892;4.702;2023-07-31T02:38:58;6.20;;;3.40;;
30247;SDS011;17063;50.892;4.702;2023-07-31T02:41:25;11.73;;;4.73;;
30247;SDS011;17063;50.892;4.702;2023-07-31T02:43:52;11.97;;;3.83;;
30247;SDS011;17063;50.892;4.702;2023-07-31T02:46:19;10.73;;;3.77;;
30247;SDS011;17063;50.892;4.702;2023-07-31T02:48:46;11.20;;;3.80;;
30247;SDS011;17063;50.892;4.702;2023-07-31T02:51:13;13.40;;;4.37;;
30247;SDS011;17063;50.892;4.702;2023-07-31T02:53:40;10.80;;;4.13;;
30247;SDS011;17063;50.892;4.702;2023-07-31T02:56:07;8.47;;;4.07;;
30247;SDS011;17063;50.892;4.702;2023-07-31T02:58:34;9.37;;;3.80;;
30247;SDS011;17063;50.892;4.702;2023-07-31T03:01:00;10.43;;;3.93;;
30247;SDS011;17063;50.892;4.702;2023-07-31T03:03:27;8.97;;;3.70;;
30247;SDS011;17063;50.892;4.702;2023-07-31T03:05:54;11.07;;;3.80;;
30247;SDS011;17063;50.892;4.702;2023-07-31T03:08:23;11.97;;;3.70;;
30247;SDS011;17063;50.892;4.702;2023-07-31T03:10:51;9.63;;;3.50;;
30247;SDS011;17063;50.892;4.702;2023-07-31T03:13:17;9.47;;;3.67;;
30247;SDS011;17063;50.892;4.702;2023-07-31T03:15:44;8.00;;;3.27;;
30247;SDS011;17063;50.892;4.702;2023-07-31T03:18:11;7.43;;;3.53;;
30247;SDS011;17063;50.892;4.702;2023-07-31T03:20:41;8.77;;;3.40;;
30247;SDS011;17063;50.892;4.702;2023-07-31T03:23:09;11.03;;;3.70;;
30247;SDS011;17063;50.892;4.702;2023-07-31T03:25:36;6.03;;;3.47;;
30247;SDS011;17063;50.892;4.702;2023-07-31T03:28:03;5.40;;;3.50;;
30247;SDS011;17063;50.892;4.702;2023-07-31T03:30:30;9.23;;;4.10;;
30247;SDS011;17063;50.892;4.702;2023-07-31T03:32:57;9.30;;;3.90;;
30247;SDS011;17063;50.892;4.702;2023-07-31T03:35:25;7.60;;;3.40;;
30247;SDS011;17063;50.892;4.702;2023-07-31T03:37:53;5.93;;;3.00;;
30247;SDS011;17063;50.892;4.702;2023-07-31T03:40:20;12.60;;;3.60;;
30247;SDS011;17063;50.892;4.702;2023-07-31T03:42:47;9.83;;;3.40;;
30247;SDS011;17063;50.892;4.702;2023-07-31T03:45:13;10.00;;;3.43;;
30247;SDS011;17063;50.892;4.702;2023-07-31T03:47:40;11.07;;;3.20;;
30247;SDS011;17063;50.892;4.702;2023-07-31T03:50:08;8.37;;;3.30;;
30247;SDS011;17063;50.892;4.702;2023-07-31T03:52:35;5.23;;;3.33;;
30247;SDS011;17063;50.892;4.702;2023-07-31T03:55:02;7.93;;;3.47;;
30247;SDS011;17063;50.892;4.702;2023-07-31T03:57:29;7.90;;;3.40;;
30247;SDS011;17063;50.892;4.702;2023-07-31T03:59:56;8.27;;;3.80;;
30247;SDS011;17063;50.892;4.702;2023-07-31T04:02:23;8.30;;;3.47;;
30247;SDS011;17063;50.892;4.702;2023-07-31T04:04:49;8.97;;;3.63;;
30247;SDS011;17063;50.892;4.702;2023-07-31T04:07:16;7.43;;;3.83;;
30247;SDS011;17063;50.892;4.702;2023-07-31T04:09:43;12.50;;;3.77;;
30247;SDS011;17063;50.892;4.702;2023-07-31T04:12:10;5.97;;;3.00;;
30247;SDS011;17063;50.892;4.702;2023-07-31T04:14:37;8.70;;;3.30;;
30247;SDS011;17063;50.892;4.702;2023-07-31T04:17:03;6.90;;;3.80;;
30247;SDS011;17063;50.892;4.702;2023-07-31T04:19:30;12.10;;;3.60;;
30247;SDS011;17063;50.892;4.702;2023-07-31T04:21:57;9.00;;;3.43;;
30247;SDS011;17063;50.892;4.702;2023-07-31T04:24:24;9.03;;;3.40;;
30247;SDS011;17063;50.892;4.702;2023-07-31T04:26:51;10.77;;;4.03;;
30247;SDS011;17063;50.892;4.702;2023-07-31T04:29:19;5.23;;;2.97;;
30247;SDS011;17063;50.892;4.702;2023-07-31T04:31:47;9.23;;;3.30;;
30247;SDS011;17063;50.892;4.702;2023-07-31T04:34:14;6.30;;;3.70;;
30247;SDS011;17063;50.892;4.702;2023-07-31T04:36:41;7.63;;;3.37;;
30247;SDS011;17063;50.892;4.702;2023-07-31T04:39:08;8.60;;;3.43;;
30247;SDS011;17063;50.892;4.702;2023-07-31T04:41:35;10.40;;;3.67;;
30247;SDS011;17063;50.892;4.702;2023-07-31T04:44:01;6.23;;;3.40;;
30247;SDS011;17063;50.892;4.702;2023-07-31T04:46:30;7.53;;;3.83;;
30247;SDS011;17063;50.892;4.702;2023-07-31T04:48:57;6.87;;;3.13;;
30247;SDS011;17063;50.892;4.702;2023-07-31T04:51:23;8.00;;;3.10;;
30247;SDS011;17063;50.892;4.702;2023-07-31T04:53:51;5.60;;;2.90;;
30247;SDS011;17063;50.892;4.702;2023-07-31T04:56:18;9.60;;;3.13;;
30247;SDS011;17063;50.892;4.702;2023-07-31T04:58:45;4.27;;;2.87;;
30247;SDS011;17063;50.892;4.702;2023-07-31T05:01:12;7.93;;;3.10;;
30247;SDS011;17063;50.892;4.702;2023-07-31T05:03:38;6.20;;;3.20;;
30247;SDS011;17063;50.892;4.702;2023-07-31T05:06:05;10.93;;;3.63;;
30247;SDS011;17063;50.892;4.702;2023-07-31T05:08:33;8.83;;;2.90;;
30247;SDS011;17063;50.892;4.702;2023-07-31T05:11:00;7.43;;;3.03;;
30247;SDS011;17063;50.892;4.702;2023-07-31T05:13:27;4.10;;;3.27;;
30247;SDS011;17063;50.892;4.702;2023-07-31T05:15:53;5.80;;;3.00;;
30247;SDS011;17063;50.892;4.702;2023-07-31T05:18:20;5.60;;;2.67;;
30247;SDS011;17063;50.892;4.702;2023-07-31T05:20:47;7.43;;;3.23;;
30247;SDS011;17063;50.892;4.702;2023-07-31T05:23:14;9.73;;;3.57;;
30247;SDS011;17063;50.892;4.702;2023-07-31T05:25:41;5.70;;;3.33;;
30247;SDS011;17063;50.892;4.702;2023-07-31T05:28:08;6.50;;;2.93;;
30247;SDS011;17063;50.892;4.702;2023-07-31T05:30:35;5.67;;;3.03;;
30247;SDS011;17063;50.892;4.702;2023-07-31T05:33:02;8.10;;;3.30;;
30247;SDS011;17063;50.892;4.702;2023-07-31T05:35:29;5.07;;;3.03;;
30247;SDS011;17063;50.892;4.702;2023-07-31T05:37:56;11.27;;;3.17;;
30247;SDS011;17063;50.892;4.702;2023-07-31T05:40:22;8.50;;;3.37;;
30247;SDS011;17063;50.892;4.702;2023-07-31T05:42:49;6.67;;;2.93;;
30247;SDS011;17063;50.892;4.702;2023-07-31T05:45:16;7.33;;;2.90;;
30247;SDS011;17063;50.892;4.702;2023-07-31T05:47:43;9.77;;;3.60;;
30247;SDS011;17063;50.892;4.702;2023-07-31T05:50:10;9.67;;;3.80;;
30247;SDS011;17063;50.892;4.702;2023-07-31T05:52:37;10.53;;;3.17;;
30247;SDS011;17063;50.892;4.702;2023-07-31T05:55:04;6.50;;;2.93;;
30247;SDS011;17063;50.892;4.702;2023-07-31T05:57:31;7.67;;;2.97;;
30247;SDS011;17063;50.892;4.702;2023-07-31T05:59:58;8.70;;;2.97;;
30247;SDS011;17063;50.892;4.702;2023-07-31T06:02:24;5.47;;;2.90;;
30247;SDS011;17063;50.892;4.702;2023-07-31T06:04:51;7.10;;;3.13;;
30247;SDS011;17063;50.892;4.702;2023-07-31T06:07:18;9.80;;;2.97;;
30247;SDS011;17063;50.892;4.702;2023-07-31T06:09:45;6.67;;;2.83;;
30247;SDS011;17063;50.892;4.702;2023-07-31T06:12:12;8.33;;;3.23;;
30247;SDS011;17063;50.892;4.702;2023-07-31T06:14:40;6.53;;;2.97;;
30247;SDS011;17063;50.892;4.702;2023-07-31T06:17:06;6.77;;;3.10;;
30247;SDS011;17063;50.892;4.702;2023-07-31T06:19:33;6.07;;;2.90;;
30247;SDS011;17063;50.892;4.702;2023-07-31T06:22:00;5.90;;;3.30;;
30247;SDS011;17063;50.892;4.702;2023-07-31T06:24:28;6.03;;;3.10;;
30247;SDS011;17063;50.892;4.702;2023-07-31T06:26:55;6.40;;;2.80;;
30247;SDS011;17063;50.892;4.702;2023-07-31T06:29:24;6.33;;;2.60;;
30247;SDS011;17063;50.892;4.702;2023-07-31T06:31:51;8.93;;;3.90;;
30247;SDS011;17063;50.892;4.702;2023-07-31T06:34:18;6.10;;;3.57;;
30247;SDS011;17063;50.892;4.702;2023-07-31T06:36:44;6.57;;;3.27;;
30247;SDS011;17063;50.892;4.702;2023-07-31T06:39:11;5.70;;;3.00;;
30247;SDS011;17063;50.892;4.702;2023-07-31T06:41:38;6.83;;;3.23;;
30247;SDS011;17063;50.892;4.702;2023-07-31T06:44:09;6.27;;;2.63;;
30247;SDS011;17063;50.892;4.702;2023-07-31T06:46:36;6.67;;;3.07;;
30247;SDS011;17063;50.892;4.702;2023-07-31T06:49:03;6.87;;;3.10;;
30247;SDS011;17063;50.892;4.702;2023-07-31T06:51:30;7.10;;;3.20;;
30247;SDS011;17063;50.892;4.702;2023-07-31T06:54:00;6.63;;;3.13;;
30247;SDS011;17063;50.892;4.702;2023-07-31T06:56:27;8.07;;;3.00;;
30247;SDS011;17063;50.892;4.702;2023-07-31T06:58:55;6.23;;;3.27;;
30247;SDS011;17063;50.892;4.702;2023-07-31T07:01:22;8.10;;;2.73;;
30247;SDS011;17063;50.892;4.702;2023-07-31T07:03:49;5.53;;;2.57;;
30247;SDS011;17063;50.892;4.702;2023-07-31T07:06:17;7.23;;;3.00;;
30247;SDS011;17063;50.892;4.702;2023-07-31T07:08:45;8.60;;;3.53;;
30247;SDS011;17063;50.892;4.702;2023-07-31T07:11:12;8.73;;;3.03;;
30247;SDS011;17063;50.892;4.702;2023-07-31T07:13:39;10.20;;;2.93;;
30247;SDS011;17063;50.892;4.702;2023-07-31T07:16:06;10.03;;;3.20;;
30247;SDS011;17063;50.892;4.702;2023-07-31T07:18:33;4.30;;;2.87;;
30247;SDS011;17063;50.892;4.702;2023-07-31T07:21:01;6.03;;;2.87;;
30247;SDS011;17063;50.892;4.702;2023-07-31T07:23:29;8.40;;;3.03;;
30247;SDS011;17063;50.892;4.702;2023-07-31T07:25:55;7.70;;;3.10;;
30247;SDS011;17063;50.892;4.702;2023-07-31T07:28:22;5.33;;;2.63;;
30247;SDS011;17063;50.892;4.702;2023-07-31T07:30:52;7.50;;;3.00;;
30247;SDS011;17063;50.892;4.702;2023-07-31T07:33:20;4.60;;;2.53;;
30247;SDS011;17063;50.892;4.702;2023-07-31T07:35:47;6.17;;;3.07;;
30247;SDS011;17063;50.892;4.702;2023-07-31T07:38:14;6.60;;;2.80;;
30247;SDS011;17063;50.892;4.702;2023-07-31T07:40:41;5.63;;;2.87;;
30247;SDS011;17063;50.892;4.702;2023-07-31T07:43:08;7.13;;;2.57;;
30247;SDS011;17063;50.892;4.702;2023-07-31T07:45:35;8.37;;;2.67;;
30247;SDS011;17063;50.892;4.702;2023-07-31T07:48:02;5.33;;;2.73;;
30247;SDS011;17063;50.892;4.702;2023-07-31T07:50:29;8.23;;;3.40;;
30247;SDS011;17063;50.892;4.702;2023-07-31T07:52:56;8.33;;;2.90;;
30247;SDS011;17063;50.892;4.702;2023-07-31T07:55:23;5.70;;;2.80;;
30247;SDS011;17063;50.892;4.702;2023-07-31T07:57:50;5.33;;;2.80;;
30247;SDS011;17063;50.892;4.702;2023-07-31T08:00:17;6.77;;;2.63;;
30247;SDS011;17063;50.892;4.702;2023-07-31T08:02:44;4.93;;;2.50;;
30247;SDS011;17063;50.892;4.702;2023-07-31T08:05:12;9.37;;;3.00;;
30247;SDS011;17063;50.892;4.702;2023-07-31T08:07:38;3.70;;;2.63;;
30247;SDS011;17063;50.892;4.702;2023-07-31T08:10:05;7.10;;;2.87;;
30247;SDS011;17063;50.892;4.702;2023-07-31T08:12:33;4.33;;;2.53;;
30247;SDS011;17063;50.892;4.702;2023-07-31T08:15:00;4.93;;;2.47;;
30247;SDS011;17063;50.892;4.702;2023-07-31T08:17:27;6.27;;;3.00;;
30247;SDS011;17063;50.892;4.702;2023-07-31T08:19:54;9.00;;;2.77;;
30247;SDS011;17063;50.892;4.702;2023-07-31T08:22:21;6.53;;;2.90;;
30247;SDS011;17063;50.892;4.702;2023-07-31T08:24:48;7.60;;;2.80;;
30247;SDS011;17063;50.892;4.702;2023-07-31T08:27:15;4.70;;;2.40;;
30247;SDS011;17063;50.892;4.702;2023-07-31T08:29:42;5.20;;;2.60;;
30247;SDS011;17063;50.892;4.702;2023-07-31T08:32:09;6.37;;;2.63;;
30247;SDS011;17063;50.892;4.702;2023-07-31T08:34:36;5.43;;;2.60;;
30247;SDS011;17063;50.892;4.702;2023-07-31T08:37:06;6.37;;;2.33;;
30247;SDS011;17063;50.892;4.702;2023-07-31T08:39:33;4.93;;;2.47;;
30247;SDS011;17063;50.892;4.702;2023-07-31T08:42:03;4.87;;;2.40;;
30247;SDS011;17063;50.892;4.702;2023-07-31T08:44:31;6.83;;;2.30;;
30247;SDS011;17063;50.892;4.702;2023-07-31T08:46:58;3.37;;;2.00;;
30247;SDS011;17063;50.892;4.702;2023-07-31T08:49:26;9.73;;;2.73;;
30247;SDS011;17063;50.892;4.702;2023-07-31T08:51:57;5.07;;;2.70;;
30247;SDS011;17063;50.892;4.702;2023-07-31T08:54:24;4.20;;;2.30;;
30247;SDS011;17063;50.892;4.702;2023-07-31T08:56:58;5.93;;;2.40;;
30247;SDS011;17063;50.892;4.702;2023-07-31T08:59:32;5.07;;;2.47;;
30247;SDS011;17063;50.892;4.702;2023-07-31T09:02:06;5.63;;;2.43;;
30247;SDS011;17063;50.892;4.702;2023-07-31T09:04:34;4.40;;;2.17;;
30247;SDS011;17063;50.892;4.702;2023-07-31T09:07:02;4.50;;;2.10;;
30247;SDS011;17063;50.892;4.702;2023-07-31T09:09:31;3.27;;;2.37;;
30247;SDS011;17063;50.892;4.702;2023-07-31T09:11:58;7.63;;;2.30;;
30247;SDS011;17063;50.892;4.702;2023-07-31T09:14:27;3.70;;;2.40;;
30247;SDS011;17063;50.892;4.702;2023-07-31T09:16:55;5.53;;;2.23;;
30247;SDS011;17063;50.892;4.702;2023-07-31T09:19:32;3.70;;;2.20;;
30247;SDS011;17063;50.892;4.702;2023-07-31T09:22:00;2.67;;;2.13;;
30247;SDS011;17063;50.892;4.702;2023-07-31T09:24:28;6.63;;;2.60;;
30247;SDS011;17063;50.892;4.702;2023-07-31T09:26:57;5.23;;;2.30;;
30247;SDS011;17063;50.892;4.702;2023-07-31T09:29:28;4.17;;;2.33;;
30247;SDS011;17063;50.892;4.702;2023-07-31T09:31:56;4.77;;;2.23;;
30247;SDS011;17063;50.892;4.702;2023-07-31T09:34:46;7.63;;;2.70;;
30247;SDS011;17063;50.892;4.702;2023-07-31T09:37:12;5.00;;;2.73;;
30247;SDS011;17063;50.892;4.702;2023-07-31T09:39:45;5.50;;;3.20;;
30247;SDS011;17063;50.892;4.702;2023-07-31T09:42:26;6.17;;;2.60;;
30247;SDS011;17063;50.892;4.702;2023-07-31T09:44:53;6.13;;;2.10;;
30247;SDS011;17063;50.892;4.702;2023-07-31T09:47:23;4.50;;;2.87;;
30247;SDS011;17063;50.892;4.702;2023-07-31T09:49:52;4.90;;;2.20;;
30247;SDS011;17063;50.892;4.702;2023-07-31T09:52:19;4.70;;;2.40;;
30247;SDS011;17063;50.892;4.702;2023-07-31T09:54:46;6.07;;;2.83;;
30247;SDS011;17063;50.892;4.702;2023-07-31T09:57:13;7.47;;;2.53;;
30247;SDS011;17063;50.892;4.702;2023-07-31T09:59:46;9.67;;;2.60;;
30247;SDS011;17063;50.892;4.702;2023-07-31T10:02:14;4.50;;;2.57;;
30247;SDS011;17063;50.892;4.702;2023-07-31T10:04:42;8.83;;;2.33;;
30247;SDS011;17063;50.892;4.702;2023-07-31T10:07:12;6.93;;;2.33;;
30247;SDS011;17063;50.892;4.702;2023-07-31T10:09:41;4.57;;;2.60;;
30247;SDS011;17063;50.892;4.702;2023-07-31T10:12:08;7.77;;;2.70;;
30247;SDS011;17063;50.892;4.702;2023-07-31T10:14:36;5.97;;;2.80;;
30247;SDS011;17063;50.892;4.702;2023-07-31T10:17:05;5.50;;;3.10;;
30247;SDS011;17063;50.892;4.702;2023-07-31T10:19:33;4.80;;;2.87;;
30247;SDS011;17063;50.892;4.702;2023-07-31T10:22:02;8.00;;;3.27;;
30247;SDS011;17063;50.892;4.702;2023-07-31T10:24:30;9.90;;;3.10;;
30247;SDS011;17063;50.892;4.702;2023-07-31T10:26:58;9.20;;;3.90;;
30247;SDS011;17063;50.892;4.702;2023-07-31T10:29:27;7.20;;;3.50;;
30247;SDS011;17063;50.892;4.702;2023-07-31T10:31:57;9.20;;;3.73;;
30247;SDS011;17063;50.892;4.702;2023-07-31T10:34:24;8.43;;;3.63;;
30247;SDS011;17063;50.892;4.702;2023-07-31T10:42:27;6.27;;;3.40;;
30247;SDS011;17063;50.892;4.702;2023-07-31T10:44:58;7.77;;;3.73;;
30247;SDS011;17063;50.892;4.702;2023-07-31T10:47:26;8.20;;;3.63;;
30247;SDS011;17063;50.892;4.702;2023-07-31T10:50:10;7.57;;;3.07;;
30247;SDS011;17063;50.892;4.702;2023-07-31T10:52:44;5.43;;;3.37;;
30247;SDS011;17063;50.892;4.702;2023-07-31T10:55:16;6.50;;;3.47;;
30247;SDS011;17063;50.892;4.702;2023-07-31T10:57:52;4.07;;;2.87;;
30247;SDS011;17063;50.892;4.702;2023-07-31T11:00:46;11.13;;;4.07;;
30247;SDS011;17063;50.892;4.702;2023-07-31T11:03:14;7.47;;;3.07;;
30247;SDS011;17063;50.892;4.702;2023-07-31T11:08:14;6.83;;;3.50;;
30247;SDS011;17063;50.892;4.702;2023-07-31T11:10:43;7.20;;;3.60;;
30247;SDS011;17063;50.892;4.702;2023-07-31T11:13:11;8.73;;;3.60;;
30247;SDS011;17063;50.892;4.702;2023-07-31T11:15:38;4.73;;;3.50;;
30247;SDS011;17063;50.892;4.702;2023-07-31T11:18:05;9.53;;;3.70;;
30247;SDS011;17063;50.892;4.702;2023-07-31T11:20:35;9.90;;;3.70;;
30247;SDS011;17063;50.892;4.702;2023-07-31T11:23:04;8.37;;;3.43;;
30247;SDS011;17063;50.892;4.702;2023-07-31T11:25:33;9.17;;;3.83;;
30247;SDS011;17063;50.892;4.702;2023-07-31T11:28:03;10.40;;;4.07;;
30247;SDS011;17063;50.892;4.702;2023-07-31T11:30:31;8.27;;;3.57;;
30247;SDS011;17063;50.892;4.702;2023-07-31T11:33:00;11.77;;;4.07;;
30247;SDS011;17063;50.892;4.702;2023-07-31T11:35:33;8.73;;;3.53;;
30247;SDS011;17063;50.892;4.702;2023-07-31T11:38:12;7.30;;;3.60;;
30247;SDS011;17063;50.892;4.702;2023-07-31T11:40:42;5.60;;;3.23;;
30247;SDS011;17063;50.892;4.702;2023-07-31T11:43:09;7.67;;;3.57;;
30247;SDS011;17063;50.892;4.702;2023-07-31T11:45:37;10.57;;;3.80;;
30247;SDS011;17063;50.892;4.702;2023-07-31T11:48:06;8.37;;;3.73;;
30247;SDS011;17063;50.892;4.702;2023-07-31T11:50:46;6.27;;;3.47;;
30247;SDS011;17063;50.892;4.702;2023-07-31T11:53:16;7.93;;;3.37;;
30247;SDS011;17063;50.892;4.702;2023-07-31T11:55:45;4.37;;;3.20;;
30247;SDS011;17063;50.892;4.702;2023-07-31T11:58:13;7.63;;;3.27;;
30247;SDS011;17063;50.892;4.702;2023-07-31T12:00:40;7.53;;;3.37;;
30247;SDS011;17063;50.892;4.702;2023-07-31T12:03:07;9.13;;;4.10;;
30247;SDS011;17063;50.892;4.702;2023-07-31T12:05:34;9.80;;;3.70;;
30247;SDS011;17063;50.892;4.702;2023-07-31T12:08:01;8.60;;;3.50;;
30247;SDS011;17063;50.892;4.702;2023-07-31T12:10:35;7.07;;;3.60;;
30247;SDS011;17063;50.892;4.702;2023-07-31T12:13:07;8.07;;;3.40;;
30247;SDS011;17063;50.892;4.702;2023-07-31T12:15:41;6.83;;;3.30;;
30247;SDS011;17063;50.892;4.702;2023-07-31T12:18:10;7.03;;;3.23;;
30247;SDS011;17063;50.892;4.702;2023-07-31T12:20:42;5.87;;;2.97;;
30247;SDS011;17063;50.892;4.702;2023-07-31T12:23:18;8.17;;;3.73;;
30247;SDS011;17063;50.892;4.702;2023-07-31T12:25:46;7.63;;;3.40;;
30247;SDS011;17063;50.892;4.702;2023-07-31T12:28:13;5.53;;;3.40;;
30247;SDS011;17063;50.892;4.702;2023-07-31T12:30:40;6.20;;;3.53;;
30247;SDS011;17063;50.892;4.702;2023-07-31T12:33:18;8.00;;;3.27;;
30247;SDS011;17063;50.892;4.702;2023-07-31T12:36:25;6.70;;;3.30;;
30247;SDS011;17063;50.892;4.702;2023-07-31T12:39:03;7.80;;;3.43;;
30247;SDS011;17063;50.892;4.702;2023-07-31T12:42:08;8.27;;;3.90;;
30247;SDS011;17063;50.892;4.702;2023-07-31T12:44:39;13.00;;;3.20;;
30247;SDS011;17063;50.892;4.702;2023-07-31T12:47:21;10.70;;;3.60;;
30247;SDS011;17063;50.892;4.702;2023-07-31T12:49:52;8.70;;;3.73;;
30247;SDS011;17063;50.892;4.702;2023-07-31T12:52:41;8.00;;;3.07;;
30247;SDS011;17063;50.892;4.702;2023-07-31T12:55:24;6.70;;;3.53;;
30247;SDS011;17063;50.892;4.702;2023-07-31T12:58:15;11.33;;;4.43;;
30247;SDS011;17063;50.892;4.702;2023-07-31T13:00:49;9.83;;;3.80;;
30247;SDS011;17063;50.892;4.702;2023-07-31T13:03:32;10.43;;;3.73;;
30247;SDS011;17063;50.892;4.702;2023-07-31T13:06:12;9.13;;;3.77;;
30247;SDS011;17063;50.892;4.702;2023-07-31T13:09:12;11.10;;;3.77;;
30247;SDS011;17063;50.892;4.702;2023-07-31T13:12:08;10.07;;;3.30;;
30247;SDS011;17063;50.892;4.702;2023-07-31T13:14:42;8.53;;;3.50;;
30247;SDS011;17063;50.892;4.702;2023-07-31T13:17:29;9.40;;;3.83;;
30247;SDS011;17063;50.892;4.702;2023-07-31T13:20:17;7.77;;;3.93;;
30247;SDS011;17063;50.892;4.702;2023-07-31T13:23:00;7.40;;;3.40;;
30247;SDS011;17063;50.892;4.702;2023-07-31T13:25:40;11.90;;;3.97;;
30247;SDS011;17063;50.892;4.702;2023-07-31T13:28:42;6.47;;;3.20;;
30247;SDS011;17063;50.892;4.702;2023-07-31T13:31:17;10.60;;;3.40;;
30247;SDS011;17063;50.892;4.702;2023-07-31T13:33:54;6.03;;;3.50;;
30247;SDS011;17063;50.892;4.702;2023-07-31T13:36:26;6.97;;;3.50;;
30247;SDS011;17063;50.892;4.702;2023-07-31T13:38:55;7.73;;;3.20;;
30247;SDS011;17063;50.892;4.702;2023-07-31T13:41:30;6.37;;;3.37;;
30247;SDS011;17063;50.892;4.702;2023-07-31T13:44:15;8.80;;;3.33;;
30247;SDS011;17063;50.892;4.702;2023-07-31T13:46:55;5.90;;;3.57;;
30247;SDS011;17063;50.892;4.702;2023-07-31T13:49:46;10.43;;;3.50;;
30247;SDS011;17063;50.892;4.702;2023-07-31T13:52:47;10.03;;;3.40;;
30247;SDS011;17063;50.892;4.702;2023-07-31T13:55:15;13.23;;;3.87;;
30247;SDS011;17063;50.892;4.702;2023-07-31T13:57:42;6.03;;;3.30;;
30247;SDS011;17063;50.892;4.702;2023-07-31T14:00:09;5.40;;;2.60;;
30247;SDS011;17063;50.892;4.702;2023-07-31T14:02:37;6.70;;;2.77;;
30247;SDS011;17063;50.892;4.702;2023-07-31T14:05:04;4.80;;;2.40;;
30247;SDS011;17063;50.892;4.702;2023-07-31T14:07:31;5.83;;;2.57;;
30247;SDS011;17063;50.892;4.702;2023-07-31T14:09:59;5.70;;;2.50;;
30247;SDS011;17063;50.892;4.702;2023-07-31T14:12:26;7.13;;;3.10;;
30247;SDS011;17063;50.892;4.702;2023-07-31T14:15:08;5.73;;;2.30;;
30247;SDS011;17063;50.892;4.702;2023-07-31T14:17:36;5.10;;;2.50;;
30247;SDS011;17063;50.892;4.702;2023-07-31T14:20:03;5.03;;;2.63;;
30247;SDS011;17063;50.892;4.702;2023-07-31T14:22:31;4.80;;;2.83;;
30247;SDS011;17063;50.892;4.702;2023-07-31T14:25:01;7.87;;;2.70;;
30247;SDS011;17063;50.892;4.702;2023-07-31T14:27:28;6.67;;;2.50;;
30247;SDS011;17063;50.892;4.702;2023-07-31T14:29:55;6.90;;;2.80;;
30247;SDS011;17063;50.892;4.702;2023-07-31T14:32:22;4.93;;;2.20;;
30247;SDS011;17063;50.892;4.702;2023-07-31T14:34:52;4.23;;;2.30;;
30247;SDS011;17063;50.892;4.702;2023-07-31T14:37:19;5.33;;;2.60;;
30247;SDS011;17063;50.892;4.702;2023-07-31T14:39:46;3.13;;;2.37;;
30247;SDS011;17063;50.892;4.702;2023-07-31T14:42:13;5.80;;;2.43;;
30247;SDS011;17063;50.892;4.702;2023-07-31T14:44:40;4.23;;;2.53;;
30247;SDS011;17063;50.892;4.702;2023-07-31T14:47:07;4.73;;;2.33;;
30247;SDS011;17063;50.892;4.702;2023-07-31T14:49:34;4.30;;;2.27;;
30247;SDS011;17063;50.892;4.702;2023-07-31T14:52:01;3.57;;;2.50;;
30247;SDS011;17063;50.892;4.702;2023-07-31T14:54:28;5.37;;;2.83;;
30247;SDS011;17063;50.892;4.702;2023-07-31T14:56:55;4.80;;;2.87;;
30247;SDS011;17063;50.892;4.702;2023-07-31T14:59:22;8.13;;;2.97;;
30247;SDS011;17063;50.892;4.702;2023-07-31T15:01:48;5.03;;;2.50;;
30247;SDS011;17063;50.892;4.702;2023-07-31T15:04:16;8.73;;;2.43;;
30247;SDS011;17063;50.892;4.702;2023-07-31T15:06:43;4.07;;;2.60;;
30247;SDS011;17063;50.892;4.702;2023-07-31T15:09:09;5.37;;;2.80;;
30247;SDS011;17063;50.892;4.702;2023-07-31T15:11:36;4.63;;;2.90;;